sensor_id;sensor_type;location;lat;lon;timestamp;P1;durP1;ratioP1;P2;durP2;ratioP2
26965;SDS011;14522;52.068;4.414;2023-09-12T00:00:56;21.63;;;14.55;;
26965;SDS011;14522;52.068;4.414;2023-09-12T00:03:23;23.40;;;16.33;;
26965;SDS011;14522;52.068;4.414;2023-09-12T00:05:50;29.17;;;18.75;;
26965;SDS011;14522;52.068;4.414;2023-09-12T00:08:16;28.58;;;19.33;;
26965;SDS011;14522;52.068;4.414;2023-09-12T00:10:43;25.92;;;18.15;;
26965;SDS011;14522;52.068;4.414;2023-09-12T00:13:09;24.55;;;16.83;;
26965;SDS011;14522;52.068;4.414;2023-09-12T00:15:36;24.00;;;15.90;;
26965;SDS011;14522;52.068;4.414;2023-09-12T00:18:02;30.95;;;20.63;;
26965;SDS011;14522;52.068;4.414;2023-09-12T00:20:29;34.63;;;21.67;;
26965;SDS011;14522;52.068;4.414;2023-09-12T00:22:56;23.90;;;16.67;;
26965;SDS011;14522;52.068;4.414;2023-09-12T00:25:22;28.40;;;19.38;;
26965;SDS011;14522;52.068;4.414;2023-09-12T00:27:49;30.67;;;19.50;;
26965;SDS011;14522;52.068;4.414;2023-09-12T00:30:15;34.28;;;21.95;;
26965;SDS011;14522;52.068;4.414;2023-09-12T00:32:41;17.38;;;12.38;;
26965;SDS011;14522;52.068;4.414;2023-09-12T00:35:08;10.00;;;7.70;;
26965;SDS011;14522;52.068;4.414;2023-09-12T00:37:35;21.85;;;15.35;;
26965;SDS011;14522;52.068;4.414;2023-09-12T00:40:01;20.77;;;15.20;;
26965;SDS011;14522;52.068;4.414;2023-09-12T00:42:28;17.50;;;12.38;;
26965;SDS011;14522;52.068;4.414;2023-09-12T00:44:54;34.53;;;23.50;;
26965;SDS011;14522;52.068;4.414;2023-09-12T00:47:21;31.80;;;22.10;;
26965;SDS011;14522;52.068;4.414;2023-09-12T00:49:48;20.13;;;14.20;;
26965;SDS011;14522;52.068;4.414;2023-09-12T00:52:22;30.95;;;20.38;;
26965;SDS011;14522;52.068;4.414;2023-09-12T00:54:50;23.85;;;15.57;;
26965;SDS011;14522;52.068;4.414;2023-09-12T00:57:17;32.95;;;20.35;;
26965;SDS011;14522;52.068;4.414;2023-09-12T00:59:43;19.45;;;13.68;;
26965;SDS011;14522;52.068;4.414;2023-09-12T01:02:10;21.05;;;13.70;;
26965;SDS011;14522;52.068;4.414;2023-09-12T01:04:36;11.32;;;7.53;;
26965;SDS011;14522;52.068;4.414;2023-09-12T01:07:03;16.45;;;9.88;;
26965;SDS011;14522;52.068;4.414;2023-09-12T01:09:31;22.27;;;14.18;;
26965;SDS011;14522;52.068;4.414;2023-09-12T01:11:59;26.00;;;16.17;;
26965;SDS011;14522;52.068;4.414;2023-09-12T01:14:25;16.52;;;11.63;;
26965;SDS011;14522;52.068;4.414;2023-09-12T01:16:51;24.80;;;15.90;;
26965;SDS011;14522;52.068;4.414;2023-09-12T01:19:18;21.77;;;14.57;;
26965;SDS011;14522;52.068;4.414;2023-09-12T01:29:26;14.27;;;9.73;;
26965;SDS011;14522;52.068;4.414;2023-09-12T01:31:53;15.90;;;10.50;;
26965;SDS011;14522;52.068;4.414;2023-09-12T01:34:20;16.23;;;11.05;;
26965;SDS011;14522;52.068;4.414;2023-09-12T01:36:46;14.77;;;8.68;;
26965;SDS011;14522;52.068;4.414;2023-09-12T01:39:12;13.27;;;9.48;;
26965;SDS011;14522;52.068;4.414;2023-09-12T01:41:40;18.17;;;11.38;;
26965;SDS011;14522;52.068;4.414;2023-09-12T01:44:07;9.73;;;7.25;;
26965;SDS011;14522;52.068;4.414;2023-09-12T01:46:34;11.85;;;8.15;;
26965;SDS011;14522;52.068;4.414;2023-09-12T01:49:02;14.00;;;9.23;;
26965;SDS011;14522;52.068;4.414;2023-09-12T01:51:30;12.02;;;8.35;;
26965;SDS011;14522;52.068;4.414;2023-09-12T01:53:57;15.05;;;9.13;;
26965;SDS011;14522;52.068;4.414;2023-09-12T01:56:24;18.20;;;9.55;;
26965;SDS011;14522;52.068;4.414;2023-09-12T01:58:51;22.98;;;13.63;;
26965;SDS011;14522;52.068;4.414;2023-09-12T02:01:17;12.23;;;8.10;;
26965;SDS011;14522;52.068;4.414;2023-09-12T02:03:44;12.27;;;8.07;;
26965;SDS011;14522;52.068;4.414;2023-09-12T02:06:10;12.23;;;8.93;;
26965;SDS011;14522;52.068;4.414;2023-09-12T02:08:37;12.65;;;9.30;;
26965;SDS011;14522;52.068;4.414;2023-09-12T02:11:03;14.68;;;9.65;;
26965;SDS011;14522;52.068;4.414;2023-09-12T02:13:30;13.88;;;9.73;;
26965;SDS011;14522;52.068;4.414;2023-09-12T02:15:59;14.25;;;8.80;;
26965;SDS011;14522;52.068;4.414;2023-09-12T02:18:26;17.02;;;10.57;;
26965;SDS011;14522;52.068;4.414;2023-09-12T02:20:53;15.18;;;9.55;;
26965;SDS011;14522;52.068;4.414;2023-09-12T02:23:19;12.18;;;7.93;;
26965;SDS011;14522;52.068;4.414;2023-09-12T02:25:45;15.20;;;9.07;;
26965;SDS011;14522;52.068;4.414;2023-09-12T02:28:12;13.45;;;9.95;;
26965;SDS011;14522;52.068;4.414;2023-09-12T02:30:38;12.40;;;7.30;;
26965;SDS011;14522;52.068;4.414;2023-09-12T02:33:06;14.15;;;10.18;;
26965;SDS011;14522;52.068;4.414;2023-09-12T02:35:33;16.48;;;10.85;;
26965;SDS011;14522;52.068;4.414;2023-09-12T02:37:59;14.93;;;10.15;;
26965;SDS011;14522;52.068;4.414;2023-09-12T02:40:26;7.38;;;5.75;;
26965;SDS011;14522;52.068;4.414;2023-09-12T02:42:52;19.35;;;12.90;;
26965;SDS011;14522;52.068;4.414;2023-09-12T02:45:19;21.50;;;13.80;;
26965;SDS011;14522;52.068;4.414;2023-09-12T02:47:45;12.70;;;7.80;;
26965;SDS011;14522;52.068;4.414;2023-09-12T02:50:12;12.40;;;8.18;;
26965;SDS011;14522;52.068;4.414;2023-09-12T02:52:39;15.75;;;11.45;;
26965;SDS011;14522;52.068;4.414;2023-09-12T02:55:05;13.93;;;9.00;;
26965;SDS011;14522;52.068;4.414;2023-09-12T02:57:32;12.30;;;7.53;;
26965;SDS011;14522;52.068;4.414;2023-09-12T02:59:58;16.05;;;9.52;;
26965;SDS011;14522;52.068;4.414;2023-09-12T03:02:25;14.35;;;9.45;;
26965;SDS011;14522;52.068;4.414;2023-09-12T03:04:51;16.92;;;10.15;;
26965;SDS011;14522;52.068;4.414;2023-09-12T03:07:18;16.40;;;9.77;;
26965;SDS011;14522;52.068;4.414;2023-09-12T03:09:44;16.30;;;10.07;;
26965;SDS011;14522;52.068;4.414;2023-09-12T03:12:13;18.63;;;11.98;;
26965;SDS011;14522;52.068;4.414;2023-09-12T03:14:40;17.60;;;11.23;;
26965;SDS011;14522;52.068;4.414;2023-09-12T03:17:06;15.43;;;9.20;;
26965;SDS011;14522;52.068;4.414;2023-09-12T03:19:33;10.35;;;6.65;;
26965;SDS011;14522;52.068;4.414;2023-09-12T03:21:59;5.13;;;3.47;;
26965;SDS011;14522;52.068;4.414;2023-09-12T03:24:25;15.65;;;9.68;;
26965;SDS011;14522;52.068;4.414;2023-09-12T03:26:55;15.48;;;10.73;;
26965;SDS011;14522;52.068;4.414;2023-09-12T03:29:21;20.23;;;12.63;;
26965;SDS011;14522;52.068;4.414;2023-09-12T03:31:49;16.40;;;9.82;;
26965;SDS011;14522;52.068;4.414;2023-09-12T03:34:15;13.95;;;9.60;;
26965;SDS011;14522;52.068;4.414;2023-09-12T03:36:42;13.43;;;8.98;;
26965;SDS011;14522;52.068;4.414;2023-09-12T03:39:08;13.60;;;8.77;;
26965;SDS011;14522;52.068;4.414;2023-09-12T03:41:35;12.05;;;7.22;;
26965;SDS011;14522;52.068;4.414;2023-09-12T03:44:01;13.45;;;9.13;;
26965;SDS011;14522;52.068;4.414;2023-09-12T03:46:28;30.17;;;16.30;;
26965;SDS011;14522;52.068;4.414;2023-09-12T03:48:54;17.80;;;11.55;;
26965;SDS011;14522;52.068;4.414;2023-09-12T03:51:21;16.65;;;11.07;;
26965;SDS011;14522;52.068;4.414;2023-09-12T03:53:47;20.83;;;10.75;;
26965;SDS011;14522;52.068;4.414;2023-09-12T03:56:16;17.63;;;10.82;;
26965;SDS011;14522;52.068;4.414;2023-09-12T03:58:42;9.55;;;6.38;;
26965;SDS011;14522;52.068;4.414;2023-09-12T04:01:09;13.40;;;8.93;;
26965;SDS011;14522;52.068;4.414;2023-09-12T04:03:36;16.10;;;10.50;;
26965;SDS011;14522;52.068;4.414;2023-09-12T04:06:02;20.23;;;13.13;;
26965;SDS011;14522;52.068;4.414;2023-09-12T04:08:29;19.02;;;11.77;;
26965;SDS011;14522;52.068;4.414;2023-09-12T04:10:55;16.65;;;9.88;;
26965;SDS011;14522;52.068;4.414;2023-09-12T04:13:22;8.63;;;5.65;;
26965;SDS011;14522;52.068;4.414;2023-09-12T04:15:48;19.23;;;11.57;;
26965;SDS011;14522;52.068;4.414;2023-09-12T04:18:15;19.98;;;11.02;;
26965;SDS011;14522;52.068;4.414;2023-09-12T04:20:41;18.98;;;11.30;;
26965;SDS011;14522;52.068;4.414;2023-09-12T04:23:08;22.05;;;11.75;;
26965;SDS011;14522;52.068;4.414;2023-09-12T04:25:34;16.95;;;10.15;;
26965;SDS011;14522;52.068;4.414;2023-09-12T04:28:01;15.32;;;8.57;;
26965;SDS011;14522;52.068;4.414;2023-09-12T04:30:31;21.05;;;13.68;;
26965;SDS011;14522;52.068;4.414;2023-09-12T04:33:02;15.05;;;10.88;;
26965;SDS011;14522;52.068;4.414;2023-09-12T04:35:33;17.52;;;10.75;;
26965;SDS011;14522;52.068;4.414;2023-09-12T04:38:06;8.30;;;4.63;;
26965;SDS011;14522;52.068;4.414;2023-09-12T04:40:36;15.68;;;9.07;;
26965;SDS011;14522;52.068;4.414;2023-09-12T04:43:08;23.00;;;14.40;;
26965;SDS011;14522;52.068;4.414;2023-09-12T04:45:40;21.95;;;14.38;;
26965;SDS011;14522;52.068;4.414;2023-09-12T04:48:07;18.50;;;11.68;;
26965;SDS011;14522;52.068;4.414;2023-09-12T04:50:33;18.98;;;12.57;;
26965;SDS011;14522;52.068;4.414;2023-09-12T04:53:00;21.88;;;14.23;;
26965;SDS011;14522;52.068;4.414;2023-09-12T04:55:26;23.83;;;15.07;;
26965;SDS011;14522;52.068;4.414;2023-09-12T04:57:52;22.95;;;14.85;;
26965;SDS011;14522;52.068;4.414;2023-09-12T05:00:19;16.02;;;10.23;;
26965;SDS011;14522;52.068;4.414;2023-09-12T05:02:45;24.88;;;14.95;;
26965;SDS011;14522;52.068;4.414;2023-09-12T05:05:12;28.52;;;16.10;;
26965;SDS011;14522;52.068;4.414;2023-09-12T05:07:38;32.47;;;19.95;;
26965;SDS011;14522;52.068;4.414;2023-09-12T05:10:05;17.65;;;10.85;;
26965;SDS011;14522;52.068;4.414;2023-09-12T05:12:31;18.15;;;9.95;;
26965;SDS011;14522;52.068;4.414;2023-09-12T05:14:58;19.25;;;11.80;;
26965;SDS011;14522;52.068;4.414;2023-09-12T05:17:24;21.15;;;11.80;;
26965;SDS011;14522;52.068;4.414;2023-09-12T05:19:51;16.95;;;10.73;;
26965;SDS011;14522;52.068;4.414;2023-09-12T05:22:17;16.70;;;11.15;;
26965;SDS011;14522;52.068;4.414;2023-09-12T05:24:43;17.15;;;9.60;;
26965;SDS011;14522;52.068;4.414;2023-09-12T05:27:10;30.05;;;17.27;;
26965;SDS011;14522;52.068;4.414;2023-09-12T05:29:36;24.70;;;13.48;;
26965;SDS011;14522;52.068;4.414;2023-09-12T05:32:03;21.08;;;11.25;;
26965;SDS011;14522;52.068;4.414;2023-09-12T05:34:30;23.38;;;13.48;;
26965;SDS011;14522;52.068;4.414;2023-09-12T05:36:57;27.83;;;15.70;;
26965;SDS011;14522;52.068;4.414;2023-09-12T05:39:23;18.08;;;12.27;;
26965;SDS011;14522;52.068;4.414;2023-09-12T05:41:49;27.10;;;15.68;;
26965;SDS011;14522;52.068;4.414;2023-09-12T05:44:16;25.85;;;15.25;;
26965;SDS011;14522;52.068;4.414;2023-09-12T05:46:47;22.60;;;13.30;;
26965;SDS011;14522;52.068;4.414;2023-09-12T05:49:14;24.30;;;14.48;;
26965;SDS011;14522;52.068;4.414;2023-09-12T05:51:41;18.30;;;11.82;;
26965;SDS011;14522;52.068;4.414;2023-09-12T05:54:09;19.85;;;12.07;;
26965;SDS011;14522;52.068;4.414;2023-09-12T05:56:36;25.00;;;15.32;;
26965;SDS011;14522;52.068;4.414;2023-09-12T05:59:02;26.38;;;16.02;;
26965;SDS011;14522;52.068;4.414;2023-09-12T06:01:29;22.77;;;14.23;;
26965;SDS011;14522;52.068;4.414;2023-09-12T06:03:55;29.80;;;17.80;;
26965;SDS011;14522;52.068;4.414;2023-09-12T06:06:23;35.78;;;21.35;;
26965;SDS011;14522;52.068;4.414;2023-09-12T06:08:49;16.77;;;9.43;;
26965;SDS011;14522;52.068;4.414;2023-09-12T06:11:15;31.95;;;17.60;;
26965;SDS011;14522;52.068;4.414;2023-09-12T06:13:42;29.85;;;16.25;;
26965;SDS011;14522;52.068;4.414;2023-09-12T06:16:08;29.00;;;15.70;;
26965;SDS011;14522;52.068;4.414;2023-09-12T06:18:35;26.65;;;14.93;;
26965;SDS011;14522;52.068;4.414;2023-09-12T06:21:01;21.30;;;13.23;;
26965;SDS011;14522;52.068;4.414;2023-09-12T06:23:34;33.90;;;18.48;;
26965;SDS011;14522;52.068;4.414;2023-09-12T06:26:01;31.17;;;17.90;;
26965;SDS011;14522;52.068;4.414;2023-09-12T06:28:28;28.35;;;14.82;;
26965;SDS011;14522;52.068;4.414;2023-09-12T06:30:55;28.85;;;16.42;;
26965;SDS011;14522;52.068;4.414;2023-09-12T06:33:24;28.10;;;15.18;;
26965;SDS011;14522;52.068;4.414;2023-09-12T06:35:51;30.05;;;18.65;;
26965;SDS011;14522;52.068;4.414;2023-09-12T06:38:19;34.53;;;19.10;;
26965;SDS011;14522;52.068;4.414;2023-09-12T06:40:45;10.38;;;6.38;;
26965;SDS011;14522;52.068;4.414;2023-09-12T06:43:13;28.15;;;14.98;;
26965;SDS011;14522;52.068;4.414;2023-09-12T06:45:40;29.77;;;18.35;;
26965;SDS011;14522;52.068;4.414;2023-09-12T06:48:06;28.15;;;16.73;;
26965;SDS011;14522;52.068;4.414;2023-09-12T06:50:33;36.60;;;17.13;;
26965;SDS011;14522;52.068;4.414;2023-09-12T06:53:00;14.95;;;8.75;;
26965;SDS011;14522;52.068;4.414;2023-09-12T06:55:27;35.58;;;18.20;;
26965;SDS011;14522;52.068;4.414;2023-09-12T06:57:53;20.98;;;13.63;;
26965;SDS011;14522;52.068;4.414;2023-09-12T07:00:20;27.45;;;16.10;;
26965;SDS011;14522;52.068;4.414;2023-09-12T07:02:46;25.75;;;15.25;;
26965;SDS011;14522;52.068;4.414;2023-09-12T07:05:13;31.48;;;17.58;;
26965;SDS011;14522;52.068;4.414;2023-09-12T07:07:40;26.67;;;15.18;;
26965;SDS011;14522;52.068;4.414;2023-09-12T07:10:06;9.45;;;6.05;;
26965;SDS011;14522;52.068;4.414;2023-09-12T07:12:49;27.05;;;15.65;;
26965;SDS011;14522;52.068;4.414;2023-09-12T07:15:16;26.25;;;15.15;;
26965;SDS011;14522;52.068;4.414;2023-09-12T07:17:42;17.00;;;11.30;;
26965;SDS011;14522;52.068;4.414;2023-09-12T07:20:09;26.92;;;17.45;;
26965;SDS011;14522;52.068;4.414;2023-09-12T07:22:38;25.30;;;14.73;;
26965;SDS011;14522;52.068;4.414;2023-09-12T07:25:06;28.52;;;18.17;;
26965;SDS011;14522;52.068;4.414;2023-09-12T07:27:32;27.83;;;17.38;;
26965;SDS011;14522;52.068;4.414;2023-09-12T07:29:59;32.83;;;17.75;;
26965;SDS011;14522;52.068;4.414;2023-09-12T07:32:25;26.50;;;15.77;;
26965;SDS011;14522;52.068;4.414;2023-09-12T07:34:53;24.05;;;15.13;;
26965;SDS011;14522;52.068;4.414;2023-09-12T07:37:19;26.70;;;15.23;;
26965;SDS011;14522;52.068;4.414;2023-09-12T07:39:46;23.20;;;12.15;;
26965;SDS011;14522;52.068;4.414;2023-09-12T07:42:12;24.65;;;13.55;;
26965;SDS011;14522;52.068;4.414;2023-09-12T07:44:38;24.15;;;15.07;;
26965;SDS011;14522;52.068;4.414;2023-09-12T07:47:06;20.45;;;12.85;;
26965;SDS011;14522;52.068;4.414;2023-09-12T07:49:33;13.95;;;10.10;;
26965;SDS011;14522;52.068;4.414;2023-09-12T07:51:59;23.65;;;12.52;;
26965;SDS011;14522;52.068;4.414;2023-09-12T07:54:26;24.27;;;15.52;;
26965;SDS011;14522;52.068;4.414;2023-09-12T07:56:52;26.70;;;16.45;;
26965;SDS011;14522;52.068;4.414;2023-09-12T07:59:18;32.70;;;16.75;;
26965;SDS011;14522;52.068;4.414;2023-09-12T08:01:45;27.70;;;14.38;;
26965;SDS011;14522;52.068;4.414;2023-09-12T08:04:11;23.95;;;14.93;;
26965;SDS011;14522;52.068;4.414;2023-09-12T08:06:39;19.73;;;13.52;;
26965;SDS011;14522;52.068;4.414;2023-09-12T08:09:22;18.95;;;11.38;;
26965;SDS011;14522;52.068;4.414;2023-09-12T08:11:49;16.05;;;11.73;;
26965;SDS011;14522;52.068;4.414;2023-09-12T08:14:15;20.13;;;11.48;;
26965;SDS011;14522;52.068;4.414;2023-09-12T08:16:42;21.38;;;14.07;;
26965;SDS011;14522;52.068;4.414;2023-09-12T08:19:08;17.27;;;11.35;;
26965;SDS011;14522;52.068;4.414;2023-09-12T08:21:39;20.20;;;13.77;;
26965;SDS011;14522;52.068;4.414;2023-09-12T08:24:06;25.17;;;15.10;;
26965;SDS011;14522;52.068;4.414;2023-09-12T08:26:32;22.60;;;13.38;;
26965;SDS011;14522;52.068;4.414;2023-09-12T08:28:58;20.33;;;15.63;;
26965;SDS011;14522;52.068;4.414;2023-09-12T08:31:25;26.27;;;15.10;;
26965;SDS011;14522;52.068;4.414;2023-09-12T08:33:53;26.35;;;15.55;;
26965;SDS011;14522;52.068;4.414;2023-09-12T08:36:20;14.32;;;10.50;;
26965;SDS011;14522;52.068;4.414;2023-09-12T08:38:46;18.83;;;12.43;;
26965;SDS011;14522;52.068;4.414;2023-09-12T08:41:13;24.02;;;14.90;;
26965;SDS011;14522;52.068;4.414;2023-09-12T08:43:39;18.10;;;12.82;;
26965;SDS011;14522;52.068;4.414;2023-09-12T08:46:06;19.30;;;10.23;;
26965;SDS011;14522;52.068;4.414;2023-09-12T08:48:33;17.40;;;12.82;;
26965;SDS011;14522;52.068;4.414;2023-09-12T08:50:59;19.50;;;14.07;;
26965;SDS011;14522;52.068;4.414;2023-09-12T08:53:27;21.40;;;12.02;;
26965;SDS011;14522;52.068;4.414;2023-09-12T08:55:53;22.27;;;14.10;;
26965;SDS011;14522;52.068;4.414;2023-09-12T08:58:20;21.95;;;15.02;;
26965;SDS011;14522;52.068;4.414;2023-09-12T09:00:47;17.58;;;12.55;;
26965;SDS011;14522;52.068;4.414;2023-09-12T09:03:13;14.38;;;10.38;;
26965;SDS011;14522;52.068;4.414;2023-09-12T09:05:40;15.02;;;9.93;;
26965;SDS011;14522;52.068;4.414;2023-09-12T09:08:08;18.02;;;9.75;;
26965;SDS011;14522;52.068;4.414;2023-09-12T09:10:35;16.35;;;8.63;;
26965;SDS011;14522;52.068;4.414;2023-09-12T09:13:15;18.00;;;11.80;;
26965;SDS011;14522;52.068;4.414;2023-09-12T09:15:42;18.10;;;12.02;;
26965;SDS011;14522;52.068;4.414;2023-09-12T09:18:09;15.10;;;9.63;;
26965;SDS011;14522;52.068;4.414;2023-09-12T09:20:37;19.80;;;12.82;;
26965;SDS011;14522;52.068;4.414;2023-09-12T09:23:05;22.80;;;11.77;;
26965;SDS011;14522;52.068;4.414;2023-09-12T09:25:32;12.48;;;7.63;;
26965;SDS011;14522;52.068;4.414;2023-09-12T09:28:02;20.02;;;12.75;;
26965;SDS011;14522;52.068;4.414;2023-09-12T09:30:42;14.48;;;11.45;;
26965;SDS011;14522;52.068;4.414;2023-09-12T09:33:09;20.27;;;11.80;;
26965;SDS011;14522;52.068;4.414;2023-09-12T09:35:35;18.45;;;10.55;;
26965;SDS011;14522;52.068;4.414;2023-09-12T09:38:03;16.35;;;11.80;;
26965;SDS011;14522;52.068;4.414;2023-09-12T09:40:29;19.70;;;11.05;;
26965;SDS011;14522;52.068;4.414;2023-09-12T09:42:56;15.60;;;10.75;;
26965;SDS011;14522;52.068;4.414;2023-09-12T09:45:24;12.88;;;8.00;;
26965;SDS011;14522;52.068;4.414;2023-09-12T09:47:51;14.98;;;10.05;;
26965;SDS011;14522;52.068;4.414;2023-09-12T09:50:18;19.48;;;11.75;;
26965;SDS011;14522;52.068;4.414;2023-09-12T09:52:44;12.40;;;8.43;;
26965;SDS011;14522;52.068;4.414;2023-09-12T09:55:14;15.30;;;9.63;;
26965;SDS011;14522;52.068;4.414;2023-09-12T09:57:41;16.83;;;9.02;;
26965;SDS011;14522;52.068;4.414;2023-09-12T10:00:08;17.10;;;11.45;;
26965;SDS011;14522;52.068;4.414;2023-09-12T10:02:35;16.67;;;10.40;;
26965;SDS011;14522;52.068;4.414;2023-09-12T10:05:03;21.00;;;9.68;;
26965;SDS011;14522;52.068;4.414;2023-09-12T10:07:32;17.08;;;8.85;;
26965;SDS011;14522;52.068;4.414;2023-09-12T10:10:00;15.70;;;7.68;;
26965;SDS011;14522;52.068;4.414;2023-09-12T10:12:28;11.48;;;7.20;;
26965;SDS011;14522;52.068;4.414;2023-09-12T10:14:58;12.75;;;7.47;;
26965;SDS011;14522;52.068;4.414;2023-09-12T10:17:26;8.82;;;6.15;;
26965;SDS011;14522;52.068;4.414;2023-09-12T10:19:55;12.13;;;7.72;;
26965;SDS011;14522;52.068;4.414;2023-09-12T10:22:27;15.70;;;10.18;;
26965;SDS011;14522;52.068;4.414;2023-09-12T10:24:55;11.55;;;6.10;;
26965;SDS011;14522;52.068;4.414;2023-09-12T10:27:22;16.77;;;8.45;;
26965;SDS011;14522;52.068;4.414;2023-09-12T10:29:50;15.30;;;7.85;;
26965;SDS011;14522;52.068;4.414;2023-09-12T10:32:19;15.45;;;6.95;;
26965;SDS011;14522;52.068;4.414;2023-09-12T10:34:48;6.13;;;3.20;;
26965;SDS011;14522;52.068;4.414;2023-09-12T10:37:15;12.93;;;7.38;;
26965;SDS011;14522;52.068;4.414;2023-09-12T10:39:45;14.13;;;7.47;;
26965;SDS011;14522;52.068;4.414;2023-09-12T10:42:11;15.57;;;7.75;;
26965;SDS011;14522;52.068;4.414;2023-09-12T10:44:39;13.10;;;6.40;;
26965;SDS011;14522;52.068;4.414;2023-09-12T10:47:05;12.68;;;5.93;;
26965;SDS011;14522;52.068;4.414;2023-09-12T10:49:32;10.55;;;6.35;;
26965;SDS011;14522;52.068;4.414;2023-09-12T10:51:58;13.50;;;6.65;;
26965;SDS011;14522;52.068;4.414;2023-09-12T10:54:35;10.60;;;4.70;;
26965;SDS011;14522;52.068;4.414;2023-09-12T10:57:11;10.55;;;4.53;;
26965;SDS011;14522;52.068;4.414;2023-09-12T11:02:31;9.80;;;6.00;;
26965;SDS011;14522;52.068;4.414;2023-09-12T11:04:59;11.57;;;6.10;;
26965;SDS011;14522;52.068;4.414;2023-09-12T11:07:29;12.75;;;6.45;;
26965;SDS011;14522;52.068;4.414;2023-09-12T11:12:42;13.02;;;5.40;;
26965;SDS011;14522;52.068;4.414;2023-09-12T11:15:09;10.93;;;5.05;;
26965;SDS011;14522;52.068;4.414;2023-09-12T11:17:43;9.88;;;3.83;;
26965;SDS011;14522;52.068;4.414;2023-09-12T11:20:10;10.10;;;4.70;;
26965;SDS011;14522;52.068;4.414;2023-09-12T11:22:38;10.85;;;4.90;;
26965;SDS011;14522;52.068;4.414;2023-09-12T11:25:17;7.50;;;4.60;;
26965;SDS011;14522;52.068;4.414;2023-09-12T11:30:21;15.38;;;4.57;;
26965;SDS011;14522;52.068;4.414;2023-09-12T11:32:49;12.10;;;5.72;;
26965;SDS011;14522;52.068;4.414;2023-09-12T11:35:17;15.15;;;5.47;;
26965;SDS011;14522;52.068;4.414;2023-09-12T11:37:51;9.07;;;4.15;;
26965;SDS011;14522;52.068;4.414;2023-09-12T11:40:52;10.98;;;5.80;;
26965;SDS011;14522;52.068;4.414;2023-09-12T11:43:21;16.33;;;6.50;;
26965;SDS011;14522;52.068;4.414;2023-09-12T11:45:48;10.45;;;4.18;;
26965;SDS011;14522;52.068;4.414;2023-09-12T11:48:15;10.52;;;5.60;;
26965;SDS011;14522;52.068;4.414;2023-09-12T11:50:41;10.30;;;5.22;;
26965;SDS011;14522;52.068;4.414;2023-09-12T11:53:09;9.88;;;5.57;;
26965;SDS011;14522;52.068;4.414;2023-09-12T11:55:41;6.28;;;2.85;;
26965;SDS011;14522;52.068;4.414;2023-09-12T11:58:08;10.25;;;5.00;;
26965;SDS011;14522;52.068;4.414;2023-09-12T12:00:35;8.98;;;5.25;;
26965;SDS011;14522;52.068;4.414;2023-09-12T12:03:01;14.82;;;5.10;;
26965;SDS011;14522;52.068;4.414;2023-09-12T12:05:29;9.52;;;5.20;;
26965;SDS011;14522;52.068;4.414;2023-09-12T12:07:55;11.30;;;4.95;;
26965;SDS011;14522;52.068;4.414;2023-09-12T12:10:41;9.20;;;4.85;;
26965;SDS011;14522;52.068;4.414;2023-09-12T12:13:11;10.50;;;4.90;;
26965;SDS011;14522;52.068;4.414;2023-09-12T12:15:38;17.73;;;6.20;;
26965;SDS011;14522;52.068;4.414;2023-09-12T12:18:04;9.48;;;4.43;;
26965;SDS011;14522;52.068;4.414;2023-09-12T12:20:31;7.80;;;4.25;;
26965;SDS011;14522;52.068;4.414;2023-09-12T12:22:57;10.07;;;4.05;;
26965;SDS011;14522;52.068;4.414;2023-09-12T12:25:23;7.20;;;3.85;;
26965;SDS011;14522;52.068;4.414;2023-09-12T12:27:50;10.63;;;3.97;;
26965;SDS011;14522;52.068;4.414;2023-09-12T12:30:17;9.00;;;4.68;;
26965;SDS011;14522;52.068;4.414;2023-09-12T12:32:44;12.77;;;5.07;;
26965;SDS011;14522;52.068;4.414;2023-09-12T12:35:16;14.18;;;4.72;;
26965;SDS011;14522;52.068;4.414;2023-09-12T12:37:43;12.45;;;5.25;;
26965;SDS011;14522;52.068;4.414;2023-09-12T12:40:14;11.85;;;5.80;;
26965;SDS011;14522;52.068;4.414;2023-09-12T12:42:41;9.60;;;5.10;;
26965;SDS011;14522;52.068;4.414;2023-09-12T12:45:22;8.30;;;4.35;;
26965;SDS011;14522;52.068;4.414;2023-09-12T12:47:59;9.50;;;4.38;;
26965;SDS011;14522;52.068;4.414;2023-09-12T12:50:26;13.68;;;5.60;;
26965;SDS011;14522;52.068;4.414;2023-09-12T12:52:53;12.57;;;5.72;;
26965;SDS011;14522;52.068;4.414;2023-09-12T12:55:20;13.25;;;5.05;;
26965;SDS011;14522;52.068;4.414;2023-09-12T12:57:47;10.43;;;4.43;;
26965;SDS011;14522;52.068;4.414;2023-09-12T13:00:15;12.90;;;6.90;;
26965;SDS011;14522;52.068;4.414;2023-09-12T13:02:41;19.15;;;10.50;;
26965;SDS011;14522;52.068;4.414;2023-09-12T13:05:27;19.95;;;10.65;;
26965;SDS011;14522;52.068;4.414;2023-09-12T13:07:54;16.40;;;11.07;;
26965;SDS011;14522;52.068;4.414;2023-09-12T13:10:21;16.55;;;10.48;;
26965;SDS011;14522;52.068;4.414;2023-09-12T13:12:47;16.30;;;9.02;;
26965;SDS011;14522;52.068;4.414;2023-09-12T13:15:15;12.90;;;7.80;;
26965;SDS011;14522;52.068;4.414;2023-09-12T13:17:41;12.38;;;7.70;;
26965;SDS011;14522;52.068;4.414;2023-09-12T13:20:08;14.52;;;8.77;;
26965;SDS011;14522;52.068;4.414;2023-09-12T13:22:35;8.38;;;4.88;;
26965;SDS011;14522;52.068;4.414;2023-09-12T13:25:02;8.50;;;6.32;;
26965;SDS011;14522;52.068;4.414;2023-09-12T13:27:29;14.55;;;6.55;;
26965;SDS011;14522;52.068;4.414;2023-09-12T13:29:55;12.30;;;6.03;;
26965;SDS011;14522;52.068;4.414;2023-09-12T13:32:25;8.30;;;4.88;;
26965;SDS011;14522;52.068;4.414;2023-09-12T13:34:52;10.30;;;4.22;;
26965;SDS011;14522;52.068;4.414;2023-09-12T13:37:19;8.60;;;4.30;;
26965;SDS011;14522;52.068;4.414;2023-09-12T13:39:45;9.10;;;3.85;;
26965;SDS011;14522;52.068;4.414;2023-09-12T13:42:17;10.70;;;4.30;;
26965;SDS011;14522;52.068;4.414;2023-09-12T13:44:47;4.45;;;2.65;;
26965;SDS011;14522;52.068;4.414;2023-09-12T13:47:14;7.00;;;3.72;;
26965;SDS011;14522;52.068;4.414;2023-09-12T13:49:47;9.05;;;4.15;;
26965;SDS011;14522;52.068;4.414;2023-09-12T13:52:14;11.88;;;4.03;;
26965;SDS011;14522;52.068;4.414;2023-09-12T13:54:43;13.45;;;4.85;;
26965;SDS011;14522;52.068;4.414;2023-09-12T13:57:10;10.00;;;4.88;;
26965;SDS011;14522;52.068;4.414;2023-09-12T13:59:36;9.73;;;4.40;;
26965;SDS011;14522;52.068;4.414;2023-09-12T14:02:11;13.70;;;4.60;;
26965;SDS011;14522;52.068;4.414;2023-09-12T14:04:38;9.57;;;4.18;;
26965;SDS011;14522;52.068;4.414;2023-09-12T14:07:07;6.00;;;4.07;;
26965;SDS011;14522;52.068;4.414;2023-09-12T14:09:33;10.77;;;5.28;;
26965;SDS011;14522;52.068;4.414;2023-09-12T14:12:00;8.07;;;5.43;;
26965;SDS011;14522;52.068;4.414;2023-09-12T14:14:27;9.68;;;4.47;;
26965;SDS011;14522;52.068;4.414;2023-09-12T14:16:54;10.75;;;4.13;;
26965;SDS011;14522;52.068;4.414;2023-09-12T14:19:20;10.70;;;5.03;;
26965;SDS011;14522;52.068;4.414;2023-09-12T14:21:48;5.75;;;2.83;;
26965;SDS011;14522;52.068;4.414;2023-09-12T14:24:15;9.18;;;4.82;;
26965;SDS011;14522;52.068;4.414;2023-09-12T14:26:43;4.85;;;2.38;;
26965;SDS011;14522;52.068;4.414;2023-09-12T14:29:11;7.35;;;4.50;;
26965;SDS011;14522;52.068;4.414;2023-09-12T14:31:38;8.63;;;3.80;;
26965;SDS011;14522;52.068;4.414;2023-09-12T14:34:04;8.05;;;4.45;;
26965;SDS011;14522;52.068;4.414;2023-09-12T14:36:32;7.95;;;4.40;;
26965;SDS011;14522;52.068;4.414;2023-09-12T14:38:59;11.80;;;4.15;;
26965;SDS011;14522;52.068;4.414;2023-09-12T14:41:25;8.48;;;4.50;;
26965;SDS011;14522;52.068;4.414;2023-09-12T14:43:51;8.05;;;4.45;;
26965;SDS011;14522;52.068;4.414;2023-09-12T14:46:18;10.18;;;3.97;;